»·PEaware :: N2RF KBOI-KBFI

N2RF :: KBOI-KBFI

FLIGHT INFORMATION

Flight Status: Arrived
Operator: Privately registered:
United States
More flights under this callsign
Pilot: Max W. (2591)
Aircraft: CESSNA 550 CITATION 2/S2/BRAVO
(C550)
More flights by this aircraft type
Origin: KBOI Boise Air Terminal/Gowen
United States
Destination: KBFI Boeing Field/King Co Intl
United States
More flights between these airports :: More routes between these airports
Route: +BOI3 OLAAH PREIS SUNED CHINS3
File this flight plan on PilotEdge
Remarks:
Altitude:
(Current/Filed)
32,000ft
Speed:
(Current/Filed)
360kts
Departed: 30-Sep-19 11:46 AM
Arrived: 30-Sep-19 12:58 PM
Distance/Time
Traveled:
349nm/1:12
Distance/Time
To Go:
Arrived

Flight Plot

Page will automatically refresh every two minutes.

Flight plan parsing failed; only flown route is shown


Map Options




Map Legend


Flown Route
Filed Route
Departure Airport
Arrival Airport
Navaid (VOR, NDB)
Fix

Horizontal Profiles

Position Reports

Time Latitude Longitude Heading Altitude Ground
Speed
30-Sep-19 11:38 43.564155 -116.235871 180 2828ft 0kts
30-Sep-19 11:39 43.564155 -116.235871 180 2828ft 0kts
30-Sep-19 11:40 43.564155 -116.235871 180 2828ft 0kts
30-Sep-19 11:41 43.564155 -116.235871 180 2828ft 0kts
30-Sep-19 11:42 43.564155 -116.235871 179 2828ft 0kts
30-Sep-19 11:43 43.564657 -116.238662 267 2821ft 24kts
30-Sep-19 11:44 43.567785 -116.242788 19 2816ft 21kts
30-Sep-19 11:45 43.568899 -116.239285 114 2815ft 73kts
30-Sep-19 11:46 43.548971 -116.187452 115 6007ft 175kts
30-Sep-19 11:47 43.528665 -116.123738 113 9472ft 201kts
30-Sep-19 11:48 43.549314 -116.072029 351 12961ft 225kts
30-Sep-19 11:49 43.600918 -116.121387 318 16175ft 237kts
30-Sep-19 11:50 43.652914 -116.180298 318 19046ft 249kts
30-Sep-19 11:51 43.707408 -116.241278 317 21580ft 259kts
30-Sep-19 11:52 43.764118 -116.304849 316 23839ft 268kts
30-Sep-19 11:53 43.822536 -116.370489 316 25842ft 275kts
30-Sep-19 11:54 43.882555 -116.438131 315 27612ft 282kts
30-Sep-19 11:55 43.943675 -116.507184 315 29189ft 287kts
30-Sep-19 11:56 44.006047 -116.577856 315 30574ft 293kts
30-Sep-19 11:57 44.069478 -116.649950 315 31805ft 297kts
30-Sep-19 11:58 44.132549 -116.722004 314 32074ft 326kts
30-Sep-19 11:59 44.201657 -116.809621 309 32074ft 345kts
30-Sep-19 12:00 44.269956 -116.907006 309 32073ft 357kts
30-Sep-19 12:01 44.340026 -117.007205 310 32073ft 363kts
30-Sep-19 12:02 44.407918 -117.104569 312 32072ft 366kts
30-Sep-19 12:03 44.478953 -117.206823 312 32075ft 367kts
30-Sep-19 12:04 44.550209 -117.309790 312 32079ft 368kts
30-Sep-19 12:05 44.621433 -117.413103 312 32081ft 368kts
30-Sep-19 12:06 44.692833 -117.517063 312 32081ft 369kts
30-Sep-19 12:07 44.763880 -117.620904 312 32081ft 369kts
30-Sep-19 12:08 44.832841 -117.722069 311 32083ft 369kts
30-Sep-19 12:09 44.904045 -117.826917 311 32083ft 369kts
30-Sep-19 12:10 44.975061 -117.931893 311 32085ft 369kts
30-Sep-19 12:11 45.045217 -118.035992 313 32089ft 364kts
30-Sep-19 12:12 45.111615 -118.134897 316 32098ft 361kts
30-Sep-19 12:14 45.181166 -118.238852 316 32102ft 363kts
30-Sep-19 12:15 45.250606 -118.343054 316 32104ft 364kts
30-Sep-19 12:16 45.320113 -118.447764 316 32123ft 364kts
30-Sep-19 12:17 45.389470 -118.552646 316 32143ft 364kts
30-Sep-19 12:18 45.453874 -118.650398 315 32147ft 364kts
30-Sep-19 12:19 45.523086 -118.755843 315 32145ft 365kts
30-Sep-19 12:20 45.592351 -118.861787 316 32147ft 365kts
30-Sep-19 12:21 45.661528 -118.968008 317 32145ft 366kts
30-Sep-19 12:22 45.730505 -119.074339 317 32146ft 364kts
30-Sep-19 12:23 45.799182 -119.180601 317 32159ft 363kts
30-Sep-19 12:24 45.867625 -119.286917 317 32169ft 362kts
30-Sep-19 12:25 45.935950 -119.393478 318 32170ft 362kts
30-Sep-19 12:26 46.004167 -119.500289 317 32179ft 362kts
30-Sep-19 12:27 46.072099 -119.607070 318 32186ft 362kts
30-Sep-19 12:28 46.133847 -119.704472 317 32196ft 362kts
30-Sep-19 12:29 46.201685 -119.811909 317 32194ft 363kts
30-Sep-19 12:30 46.269661 -119.920006 317 32191ft 364kts
30-Sep-19 12:31 46.338145 -120.034654 313 30549ft 400kts
30-Sep-19 12:31 46.394533 -120.134495 312 28297ft 366kts
30-Sep-19 12:33 46.469932 -120.267089 311 25170ft 364kts
30-Sep-19 12:34 46.530297 -120.373929 310 24178ft 321kts
30-Sep-19 12:34 46.579121 -120.460944 308 24182ft 342kts
30-Sep-19 12:35 46.633814 -120.577105 306 24181ft 352kts
30-Sep-19 12:37 46.692860 -120.701551 305 24182ft 355kts
30-Sep-19 12:37 46.738070 -120.796882 305 22755ft 331kts
30-Sep-19 12:38 46.790886 -120.908604 304 20524ft 337kts
30-Sep-19 12:40 46.852885 -121.040357 304 17914ft 338kts
30-Sep-19 12:40 46.897250 -121.135010 306 16042ft 340kts
30-Sep-19 12:41 46.948651 -121.244974 306 13791ft 319kts
30-Sep-19 12:42 46.998257 -121.351741 306 11552ft 315kts
30-Sep-19 12:43 47.047102 -121.457064 307 10172ft 323kts
30-Sep-19 12:44 47.093484 -121.557544 306 9772ft 286kts
30-Sep-19 12:45 47.133444 -121.644364 306 8993ft 269kts
30-Sep-19 12:46 47.172694 -121.730456 306 8106ft 270kts
30-Sep-19 12:47 47.216078 -121.823786 306 6995ft 278kts
30-Sep-19 12:48 47.261571 -121.920306 306 6980ft 293kts
30-Sep-19 12:49 47.301474 -122.004964 306 4858ft 205kts
30-Sep-19 12:50 47.337165 -122.079735 306 3988ft 212kts
30-Sep-19 12:51 47.370389 -122.149999 306 3996ft 210kts
30-Sep-19 12:52 47.402989 -122.219615 306 3998ft 205kts
30-Sep-19 12:53 47.441190 -122.300682 306 3997ft 247kts
30-Sep-19 12:54 47.489283 -122.362593 329 2553ft 214kts
30-Sep-19 12:55 47.536651 -122.359706 25 1707ft 148kts
30-Sep-19 12:56 47.551896 -122.322727 125 633ft 112kts
30-Sep-19 12:57 47.530326 -122.302827 173 22ft 22kts
30-Sep-19 12:58 47.530566 -122.305878 219 22ft 9kts

Navigation Log

Ident Type
Flight plan parsing failed, navigation log unavailable